sensor_id;sensor_type;location;lat;lon;timestamp;P1;durP1;ratioP1;P2;durP2;ratioP2
38797;SDS011;24546;52.240;16.826;2022-11-25T00:03:04;213.82;;;64.35;;
38797;SDS011;24546;52.240;16.826;2022-11-25T00:08:08;229.90;;;68.35;;
38797;SDS011;24546;52.240;16.826;2022-11-25T00:13:09;255.95;;;65.45;;
38797;SDS011;24546;52.240;16.826;2022-11-25T00:18:10;189.57;;;61.35;;
38797;SDS011;24546;52.240;16.826;2022-11-25T00:23:11;237.90;;;67.30;;
38797;SDS011;24546;52.240;16.826;2022-11-25T00:28:12;175.15;;;59.35;;
38797;SDS011;24546;52.240;16.826;2022-11-25T00:33:13;160.27;;;56.80;;
38797;SDS011;24546;52.240;16.826;2022-11-25T00:38:14;218.77;;;62.53;;
38797;SDS011;24546;52.240;16.826;2022-11-25T00:43:17;156.95;;;59.75;;
38797;SDS011;24546;52.240;16.826;2022-11-25T00:48:37;213.23;;;61.83;;
38797;SDS011;24546;52.240;16.826;2022-11-25T00:53:37;160.55;;;57.42;;
38797;SDS011;24546;52.240;16.826;2022-11-25T00:58:39;168.05;;;57.63;;
38797;SDS011;24546;52.240;16.826;2022-11-25T01:03:40;140.20;;;53.30;;
38797;SDS011;24546;52.240;16.826;2022-11-25T01:08:41;168.85;;;54.03;;
38797;SDS011;24546;52.240;16.826;2022-11-25T01:13:43;160.73;;;52.45;;
38797;SDS011;24546;52.240;16.826;2022-11-25T01:18:45;149.85;;;50.70;;
38797;SDS011;24546;52.240;16.826;2022-11-25T01:23:46;145.65;;;53.40;;
38797;SDS011;24546;52.240;16.826;2022-11-25T01:28:54;125.25;;;48.45;;
38797;SDS011;24546;52.240;16.826;2022-11-25T01:33:58;118.38;;;48.42;;
38797;SDS011;24546;52.240;16.826;2022-11-25T01:39:21;113.25;;;47.08;;
38797;SDS011;24546;52.240;16.826;2022-11-25T01:44:26;150.50;;;50.80;;
38797;SDS011;24546;52.240;16.826;2022-11-25T01:49:35;131.15;;;50.00;;
38797;SDS011;24546;52.240;16.826;2022-11-25T01:54:43;103.97;;;44.42;;
38797;SDS011;24546;52.240;16.826;2022-11-25T01:59:52;105.47;;;46.25;;
38797;SDS011;24546;52.240;16.826;2022-11-25T02:04:57;98.55;;;43.65;;
38797;SDS011;24546;52.240;16.826;2022-11-25T02:10:04;108.68;;;48.03;;
38797;SDS011;24546;52.240;16.826;2022-11-25T02:15:08;118.65;;;47.60;;
38797;SDS011;24546;52.240;16.826;2022-11-25T02:20:29;95.55;;;45.40;;
38797;SDS011;24546;52.240;16.826;2022-11-25T02:25:34;109.93;;;46.28;;
38797;SDS011;24546;52.240;16.826;2022-11-25T02:30:41;120.15;;;46.92;;
38797;SDS011;24546;52.240;16.826;2022-11-25T02:35:46;97.47;;;43.95;;
38797;SDS011;24546;52.240;16.826;2022-11-25T02:40:53;158.85;;;50.67;;
38797;SDS011;24546;52.240;16.826;2022-11-25T02:46:11;112.30;;;47.30;;
38797;SDS011;24546;52.240;16.826;2022-11-25T02:51:21;119.60;;;48.50;;
38797;SDS011;24546;52.240;16.826;2022-11-25T02:56:26;118.25;;;47.28;;
38797;SDS011;24546;52.240;16.826;2022-11-25T03:01:29;102.78;;;43.58;;
38797;SDS011;24546;52.240;16.826;2022-11-25T03:06:30;133.25;;;49.40;;
38797;SDS011;24546;52.240;16.826;2022-11-25T03:11:31;128.40;;;50.70;;
38797;SDS011;24546;52.240;16.826;2022-11-25T03:16:53;159.63;;;50.25;;
38797;SDS011;24546;52.240;16.826;2022-11-25T03:22:00;106.47;;;46.38;;
38797;SDS011;24546;52.240;16.826;2022-11-25T03:27:01;104.05;;;44.90;;
38797;SDS011;24546;52.240;16.826;2022-11-25T03:32:05;121.75;;;46.83;;
38797;SDS011;24546;52.240;16.826;2022-11-25T03:37:06;104.05;;;45.53;;
38797;SDS011;24546;52.240;16.826;2022-11-25T03:42:08;124.78;;;49.90;;
38797;SDS011;24546;52.240;16.826;2022-11-25T03:47:09;117.80;;;47.42;;
38797;SDS011;24546;52.240;16.826;2022-11-25T03:52:10;103.88;;;47.67;;
38797;SDS011;24546;52.240;16.826;2022-11-25T03:57:11;114.70;;;49.53;;
38797;SDS011;24546;52.240;16.826;2022-11-25T04:02:12;117.50;;;47.13;;
38797;SDS011;24546;52.240;16.826;2022-11-25T04:07:16;108.07;;;48.60;;
38797;SDS011;24546;52.240;16.826;2022-11-25T04:12:17;129.57;;;49.33;;
38797;SDS011;24546;52.240;16.826;2022-11-25T04:17:40;119.70;;;45.22;;
38797;SDS011;24546;52.240;16.826;2022-11-25T04:22:41;117.75;;;50.10;;
38797;SDS011;24546;52.240;16.826;2022-11-25T04:27:45;113.07;;;48.33;;
38797;SDS011;24546;52.240;16.826;2022-11-25T04:32:47;99.50;;;42.97;;
38797;SDS011;24546;52.240;16.826;2022-11-25T04:37:50;115.80;;;47.88;;
38797;SDS011;24546;52.240;16.826;2022-11-25T04:42:51;146.25;;;50.33;;
38797;SDS011;24546;52.240;16.826;2022-11-25T04:47:57;98.85;;;43.97;;
38797;SDS011;24546;52.240;16.826;2022-11-25T04:52:58;99.07;;;45.35;;
38797;SDS011;24546;52.240;16.826;2022-11-25T04:57:59;76.90;;;37.83;;
38797;SDS011;24546;52.240;16.826;2022-11-25T05:03:07;100.47;;;42.40;;
38797;SDS011;24546;52.240;16.826;2022-11-25T05:08:11;109.18;;;46.17;;
38797;SDS011;24546;52.240;16.826;2022-11-25T05:13:16;116.57;;;44.42;;
38797;SDS011;24546;52.240;16.826;2022-11-25T05:18:20;100.15;;;42.90;;
38797;SDS011;24546;52.240;16.826;2022-11-25T05:23:25;90.57;;;42.20;;
38797;SDS011;24546;52.240;16.826;2022-11-25T05:28:27;92.35;;;42.88;;
38797;SDS011;24546;52.240;16.826;2022-11-25T05:33:29;89.88;;;42.22;;
38797;SDS011;24546;52.240;16.826;2022-11-25T05:38:31;126.95;;;48.90;;
38797;SDS011;24546;52.240;16.826;2022-11-25T05:43:33;108.55;;;40.35;;
38797;SDS011;24546;52.240;16.826;2022-11-25T05:48:34;90.65;;;40.50;;
38797;SDS011;24546;52.240;16.826;2022-11-25T05:53:36;100.28;;;41.33;;
38797;SDS011;24546;52.240;16.826;2022-11-25T05:58:37;92.72;;;41.08;;
38797;SDS011;24546;52.240;16.826;2022-11-25T06:03:38;102.50;;;42.47;;
38797;SDS011;24546;52.240;16.826;2022-11-25T06:08:40;101.50;;;43.47;;
38797;SDS011;24546;52.240;16.826;2022-11-25T06:13:42;97.35;;;43.72;;
38797;SDS011;24546;52.240;16.826;2022-11-25T06:18:45;95.95;;;44.60;;
38797;SDS011;24546;52.240;16.826;2022-11-25T06:23:46;120.97;;;46.90;;
38797;SDS011;24546;52.240;16.826;2022-11-25T06:28:53;106.75;;;45.83;;
38797;SDS011;24546;52.240;16.826;2022-11-25T06:33:56;98.88;;;45.38;;
38797;SDS011;24546;52.240;16.826;2022-11-25T06:38:57;138.85;;;50.10;;
38797;SDS011;24546;52.240;16.826;2022-11-25T06:43:58;101.18;;;41.45;;
38797;SDS011;24546;52.240;16.826;2022-11-25T06:48:59;113.85;;;46.20;;
38797;SDS011;24546;52.240;16.826;2022-11-25T06:54:00;105.30;;;44.08;;
38797;SDS011;24546;52.240;16.826;2022-11-25T06:59:01;117.43;;;48.40;;
38797;SDS011;24546;52.240;16.826;2022-11-25T07:04:03;100.07;;;41.15;;
38797;SDS011;24546;52.240;16.826;2022-11-25T07:09:05;99.60;;;43.13;;
38797;SDS011;24546;52.240;16.826;2022-11-25T07:14:08;122.75;;;44.47;;
38797;SDS011;24546;52.240;16.826;2022-11-25T07:19:11;106.40;;;44.03;;
38797;SDS011;24546;52.240;16.826;2022-11-25T07:24:15;102.10;;;42.72;;
38797;SDS011;24546;52.240;16.826;2022-11-25T07:29:16;99.97;;;42.20;;
38797;SDS011;24546;52.240;16.826;2022-11-25T07:34:19;105.20;;;46.28;;
38797;SDS011;24546;52.240;16.826;2022-11-25T07:39:21;89.80;;;39.40;;
38797;SDS011;24546;52.240;16.826;2022-11-25T07:44:26;98.18;;;43.35;;
38797;SDS011;24546;52.240;16.826;2022-11-25T07:49:34;91.93;;;42.83;;
38797;SDS011;24546;52.240;16.826;2022-11-25T07:54:35;88.82;;;39.80;;
38797;SDS011;24546;52.240;16.826;2022-11-25T07:59:36;81.43;;;35.28;;
38797;SDS011;24546;52.240;16.826;2022-11-25T08:04:46;93.53;;;38.50;;
38797;SDS011;24546;52.240;16.826;2022-11-25T08:09:47;96.63;;;39.22;;
38797;SDS011;24546;52.240;16.826;2022-11-25T08:14:47;111.82;;;47.55;;
38797;SDS011;24546;52.240;16.826;2022-11-25T08:19:48;109.78;;;47.03;;
38797;SDS011;24546;52.240;16.826;2022-11-25T08:24:50;97.55;;;40.42;;
38797;SDS011;24546;52.240;16.826;2022-11-25T08:29:51;113.53;;;45.92;;
38797;SDS011;24546;52.240;16.826;2022-11-25T08:34:52;114.00;;;45.88;;
38797;SDS011;24546;52.240;16.826;2022-11-25T08:39:53;117.45;;;47.05;;
38797;SDS011;24546;52.240;16.826;2022-11-25T08:44:54;117.30;;;48.70;;
38797;SDS011;24546;52.240;16.826;2022-11-25T08:49:55;111.78;;;45.15;;
38797;SDS011;24546;52.240;16.826;2022-11-25T08:54:57;126.28;;;50.08;;
38797;SDS011;24546;52.240;16.826;2022-11-25T08:59:58;108.30;;;48.55;;
38797;SDS011;24546;52.240;16.826;2022-11-25T09:04:59;117.85;;;46.28;;
38797;SDS011;24546;52.240;16.826;2022-11-25T09:10:00;97.82;;;42.65;;
38797;SDS011;24546;52.240;16.826;2022-11-25T09:15:04;103.43;;;42.78;;
38797;SDS011;24546;52.240;16.826;2022-11-25T09:20:06;121.32;;;48.88;;
38797;SDS011;24546;52.240;16.826;2022-11-25T09:25:07;106.32;;;42.63;;
38797;SDS011;24546;52.240;16.826;2022-11-25T09:30:08;81.05;;;36.92;;
38797;SDS011;24546;52.240;16.826;2022-11-25T09:35:09;84.80;;;39.03;;
38797;SDS011;24546;52.240;16.826;2022-11-25T09:45:20;99.28;;;40.80;;
38797;SDS011;24546;52.240;16.826;2022-11-25T09:50:52;94.22;;;39.95;;
38797;SDS011;24546;52.240;16.826;2022-11-25T09:56:28;102.00;;;41.10;;
38797;SDS011;24546;52.240;16.826;2022-11-25T10:01:34;85.32;;;38.63;;
38797;SDS011;24546;52.240;16.826;2022-11-25T10:07:00;100.00;;;43.13;;
38797;SDS011;24546;52.240;16.826;2022-11-25T10:17:44;93.82;;;42.25;;
38797;SDS011;24546;52.240;16.826;2022-11-25T10:22:51;92.38;;;40.65;;
38797;SDS011;24546;52.240;16.826;2022-11-25T10:28:04;98.53;;;40.67;;
38797;SDS011;24546;52.240;16.826;2022-11-25T10:38:56;89.97;;;41.85;;
38797;SDS011;24546;52.240;16.826;2022-11-25T10:44:07;100.88;;;44.38;;
38797;SDS011;24546;52.240;16.826;2022-11-25T10:49:15;104.68;;;43.25;;
38797;SDS011;24546;52.240;16.826;2022-11-25T10:54:27;111.60;;;46.30;;
38797;SDS011;24546;52.240;16.826;2022-11-25T11:04:33;118.57;;;48.25;;
38797;SDS011;24546;52.240;16.826;2022-11-25T11:09:36;103.07;;;43.83;;
38797;SDS011;24546;52.240;16.826;2022-11-25T11:14:40;96.25;;;43.75;;
38797;SDS011;24546;52.240;16.826;2022-11-25T11:19:43;113.38;;;46.97;;
38797;SDS011;24546;52.240;16.826;2022-11-25T11:25:21;128.40;;;52.40;;
38797;SDS011;24546;52.240;16.826;2022-11-25T11:30:27;133.75;;;54.22;;
38797;SDS011;24546;52.240;16.826;2022-11-25T11:35:40;124.25;;;50.65;;
38797;SDS011;24546;52.240;16.826;2022-11-25T11:40:49;132.70;;;56.40;;
38797;SDS011;24546;52.240;16.826;2022-11-25T11:51:29;152.48;;;64.38;;
38797;SDS011;24546;52.240;16.826;2022-11-25T11:56:55;191.57;;;71.40;;
38797;SDS011;24546;52.240;16.826;2022-11-25T12:18:26;190.25;;;76.40;;
38797;SDS011;24546;52.240;16.826;2022-11-25T12:28:58;204.63;;;80.93;;
38797;SDS011;24546;52.240;16.826;2022-11-25T12:34:18;212.45;;;80.93;;
38797;SDS011;24546;52.240;16.826;2022-11-25T12:39:33;199.45;;;81.15;;
38797;SDS011;24546;52.240;16.826;2022-11-25T12:45:16;197.27;;;76.55;;
38797;SDS011;24546;52.240;16.826;2022-11-25T12:50:25;179.70;;;73.00;;
38797;SDS011;24546;52.240;16.826;2022-11-25T12:55:47;160.80;;;68.35;;
38797;SDS011;24546;52.240;16.826;2022-11-25T13:01:11;173.05;;;66.53;;
38797;SDS011;24546;52.240;16.826;2022-11-25T13:16:57;116.68;;;53.95;;
38797;SDS011;24546;52.240;16.826;2022-11-25T13:22:21;137.38;;;56.47;;
38797;SDS011;24546;52.240;16.826;2022-11-25T13:27:30;151.60;;;57.45;;
38797;SDS011;24546;52.240;16.826;2022-11-25T13:32:39;172.90;;;74.40;;
38797;SDS011;24546;52.240;16.826;2022-11-25T13:37:41;176.63;;;74.72;;
38797;SDS011;24546;52.240;16.826;2022-11-25T13:42:42;156.73;;;66.40;;
38797;SDS011;24546;52.240;16.826;2022-11-25T13:47:46;186.80;;;84.05;;
38797;SDS011;24546;52.240;16.826;2022-11-25T13:52:49;157.85;;;68.60;;
38797;SDS011;24546;52.240;16.826;2022-11-25T14:29:47;155.93;;;61.80;;
38797;SDS011;24546;52.240;16.826;2022-11-25T14:34:56;163.48;;;63.85;;
38797;SDS011;24546;52.240;16.826;2022-11-25T14:40:20;137.63;;;57.60;;
38797;SDS011;24546;52.240;16.826;2022-11-25T14:45:29;138.05;;;55.45;;
38797;SDS011;24546;52.240;16.826;2022-11-25T14:50:32;131.90;;;49.53;;
38797;SDS011;24546;52.240;16.826;2022-11-25T14:55:33;162.23;;;59.55;;
38797;SDS011;24546;52.240;16.826;2022-11-25T15:00:34;151.27;;;57.60;;
38797;SDS011;24546;52.240;16.826;2022-11-25T15:06:00;155.38;;;57.97;;
38797;SDS011;24546;52.240;16.826;2022-11-25T15:11:07;174.50;;;59.50;;
38797;SDS011;24546;52.240;16.826;2022-11-25T15:16:21;129.13;;;56.33;;
38797;SDS011;24546;52.240;16.826;2022-11-25T15:21:29;137.52;;;56.08;;
38797;SDS011;24546;52.240;16.826;2022-11-25T15:26:35;165.30;;;57.38;;
38797;SDS011;24546;52.240;16.826;2022-11-25T15:31:37;167.52;;;63.97;;
38797;SDS011;24546;52.240;16.826;2022-11-25T15:36:40;166.70;;;64.32;;
38797;SDS011;24546;52.240;16.826;2022-11-25T15:41:42;204.05;;;72.57;;
38797;SDS011;24546;52.240;16.826;2022-11-25T15:46:58;222.85;;;75.03;;
38797;SDS011;24546;52.240;16.826;2022-11-25T15:57:19;152.40;;;57.25;;
38797;SDS011;24546;52.240;16.826;2022-11-25T16:02:35;173.32;;;59.85;;
38797;SDS011;24546;52.240;16.826;2022-11-25T16:18:19;145.52;;;55.15;;
38797;SDS011;24546;52.240;16.826;2022-11-25T16:23:34;169.38;;;81.88;;
38797;SDS011;24546;52.240;16.826;2022-11-25T16:28:37;235.10;;;100.35;;
38797;SDS011;24546;52.240;16.826;2022-11-25T16:33:40;265.50;;;96.53;;
38797;SDS011;24546;52.240;16.826;2022-11-25T16:38:41;197.77;;;80.93;;
38797;SDS011;24546;52.240;16.826;2022-11-25T16:43:47;173.60;;;60.97;;
38797;SDS011;24546;52.240;16.826;2022-11-25T16:48:48;180.75;;;57.97;;
38797;SDS011;24546;52.240;16.826;2022-11-25T16:53:51;147.25;;;53.83;;
38797;SDS011;24546;52.240;16.826;2022-11-25T16:58:55;134.57;;;51.72;;
38797;SDS011;24546;52.240;16.826;2022-11-25T17:03:57;138.80;;;53.35;;
38797;SDS011;24546;52.240;16.826;2022-11-25T17:09:03;189.73;;;66.93;;
38797;SDS011;24546;52.240;16.826;2022-11-25T17:14:12;236.55;;;80.68;;
38797;SDS011;24546;52.240;16.826;2022-11-25T17:19:19;215.23;;;80.00;;
38797;SDS011;24546;52.240;16.826;2022-11-25T17:24:21;304.77;;;91.32;;
38797;SDS011;24546;52.240;16.826;2022-11-25T17:29:29;232.27;;;78.70;;
38797;SDS011;24546;52.240;16.826;2022-11-25T17:34:35;254.45;;;77.90;;
38797;SDS011;24546;52.240;16.826;2022-11-25T17:39:36;253.82;;;81.18;;
38797;SDS011;24546;52.240;16.826;2022-11-25T17:44:37;199.25;;;68.53;;
38797;SDS011;24546;52.240;16.826;2022-11-25T17:49:42;269.73;;;78.95;;
38797;SDS011;24546;52.240;16.826;2022-11-25T17:54:45;183.07;;;65.18;;
38797;SDS011;24546;52.240;16.826;2022-11-25T17:59:46;238.30;;;85.05;;
38797;SDS011;24546;52.240;16.826;2022-11-25T18:04:47;191.35;;;77.60;;
38797;SDS011;24546;52.240;16.826;2022-11-25T18:09:52;239.95;;;80.35;;
38797;SDS011;24546;52.240;16.826;2022-11-25T18:14:53;204.27;;;70.35;;
38797;SDS011;24546;52.240;16.826;2022-11-25T18:19:55;231.93;;;72.07;;
38797;SDS011;24546;52.240;16.826;2022-11-25T18:24:56;224.75;;;78.70;;
38797;SDS011;24546;52.240;16.826;2022-11-25T18:29:56;216.25;;;71.28;;
38797;SDS011;24546;52.240;16.826;2022-11-25T18:34:58;184.02;;;61.83;;
38797;SDS011;24546;52.240;16.826;2022-11-25T18:39:59;175.18;;;62.60;;
38797;SDS011;24546;52.240;16.826;2022-11-25T18:45:00;181.82;;;65.32;;
38797;SDS011;24546;52.240;16.826;2022-11-25T18:50:01;212.70;;;73.35;;
38797;SDS011;24546;52.240;16.826;2022-11-25T18:55:04;190.63;;;65.97;;
38797;SDS011;24546;52.240;16.826;2022-11-25T19:00:12;232.40;;;71.65;;
38797;SDS011;24546;52.240;16.826;2022-11-25T19:10:22;172.95;;;60.47;;
38797;SDS011;24546;52.240;16.826;2022-11-25T19:15:26;165.90;;;65.22;;
38797;SDS011;24546;52.240;16.826;2022-11-25T19:20:27;184.88;;;67.30;;
38797;SDS011;24546;52.240;16.826;2022-11-25T19:25:29;178.68;;;63.25;;
38797;SDS011;24546;52.240;16.826;2022-11-25T19:30:30;201.27;;;70.55;;
38797;SDS011;24546;52.240;16.826;2022-11-25T19:35:34;263.08;;;81.28;;
38797;SDS011;24546;52.240;16.826;2022-11-25T19:40:36;204.35;;;72.60;;
38797;SDS011;24546;52.240;16.826;2022-11-25T19:45:39;210.48;;;71.75;;
38797;SDS011;24546;52.240;16.826;2022-11-25T19:50:41;180.40;;;65.97;;
38797;SDS011;24546;52.240;16.826;2022-11-25T19:55:44;275.17;;;76.28;;
38797;SDS011;24546;52.240;16.826;2022-11-25T20:00:46;173.02;;;63.60;;
38797;SDS011;24546;52.240;16.826;2022-11-25T20:05:48;283.95;;;82.47;;
38797;SDS011;24546;52.240;16.826;2022-11-25T20:10:51;189.88;;;70.00;;
38797;SDS011;24546;52.240;16.826;2022-11-25T20:15:52;213.35;;;75.88;;
38797;SDS011;24546;52.240;16.826;2022-11-25T20:20:57;267.45;;;75.47;;
38797;SDS011;24546;52.240;16.826;2022-11-25T20:26:01;219.70;;;80.28;;
38797;SDS011;24546;52.240;16.826;2022-11-25T20:31:07;229.10;;;71.07;;
38797;SDS011;24546;52.240;16.826;2022-11-25T20:36:12;216.63;;;88.15;;
38797;SDS011;24546;52.240;16.826;2022-11-25T20:41:16;223.68;;;76.80;;
38797;SDS011;24546;52.240;16.826;2022-11-25T20:46:24;273.60;;;79.10;;
38797;SDS011;24546;52.240;16.826;2022-11-25T20:51:29;214.77;;;67.32;;
38797;SDS011;24546;52.240;16.826;2022-11-25T20:56:30;200.25;;;73.10;;
38797;SDS011;24546;52.240;16.826;2022-11-25T21:01:31;196.77;;;71.30;;
38797;SDS011;24546;52.240;16.826;2022-11-25T21:06:32;227.82;;;71.05;;
38797;SDS011;24546;52.240;16.826;2022-11-25T21:11:34;172.45;;;65.32;;
38797;SDS011;24546;52.240;16.826;2022-11-25T21:16:36;210.20;;;68.78;;
38797;SDS011;24546;52.240;16.826;2022-11-25T21:21:38;198.30;;;67.45;;
38797;SDS011;24546;52.240;16.826;2022-11-25T21:26:40;287.40;;;79.93;;
38797;SDS011;24546;52.240;16.826;2022-11-25T21:31:42;193.00;;;67.28;;
38797;SDS011;24546;52.240;16.826;2022-11-25T21:36:44;264.70;;;75.80;;
38797;SDS011;24546;52.240;16.826;2022-11-25T21:41:48;223.40;;;64.25;;
38797;SDS011;24546;52.240;16.826;2022-11-25T21:46:49;233.25;;;67.43;;
38797;SDS011;24546;52.240;16.826;2022-11-25T21:51:51;233.90;;;63.78;;
38797;SDS011;24546;52.240;16.826;2022-11-25T21:56:52;207.75;;;68.47;;
38797;SDS011;24546;52.240;16.826;2022-11-25T22:01:54;191.02;;;60.33;;
38797;SDS011;24546;52.240;16.826;2022-11-25T22:06:56;205.55;;;62.63;;
38797;SDS011;24546;52.240;16.826;2022-11-25T22:11:57;230.93;;;65.15;;
38797;SDS011;24546;52.240;16.826;2022-11-25T22:16:59;191.35;;;66.15;;
38797;SDS011;24546;52.240;16.826;2022-11-25T22:22:02;239.55;;;71.25;;
38797;SDS011;24546;52.240;16.826;2022-11-25T22:27:09;342.17;;;88.15;;
38797;SDS011;24546;52.240;16.826;2022-11-25T22:32:16;304.95;;;75.75;;
38797;SDS011;24546;52.240;16.826;2022-11-25T22:37:19;332.48;;;83.57;;
38797;SDS011;24546;52.240;16.826;2022-11-25T22:42:26;218.05;;;67.53;;
38797;SDS011;24546;52.240;16.826;2022-11-25T22:57:37;213.85;;;69.32;;
38797;SDS011;24546;52.240;16.826;2022-11-25T23:02:38;272.23;;;72.75;;
38797;SDS011;24546;52.240;16.826;2022-11-25T23:07:38;321.00;;;73.97;;
38797;SDS011;24546;52.240;16.826;2022-11-25T23:12:39;222.52;;;65.45;;
38797;SDS011;24546;52.240;16.826;2022-11-25T23:17:50;303.15;;;71.35;;
38797;SDS011;24546;52.240;16.826;2022-11-25T23:22:56;230.73;;;69.57;;
38797;SDS011;24546;52.240;16.826;2022-11-25T23:27:58;237.38;;;69.03;;
38797;SDS011;24546;52.240;16.826;2022-11-25T23:32:59;211.40;;;67.05;;
38797;SDS011;24546;52.240;16.826;2022-11-25T23:38:02;211.95;;;66.03;;
38797;SDS011;24546;52.240;16.826;2022-11-25T23:43:16;294.60;;;73.57;;
38797;SDS011;24546;52.240;16.826;2022-11-25T23:48:17;185.82;;;61.40;;
38797;SDS011;24546;52.240;16.826;2022-11-25T23:53:23;177.30;;;60.13;;
